ENT1089 EPWA-DTTJ
Flight info
| Callsign | ENT1089 |
|---|---|
| Flight time | 2h 55m |
| Altitude | 36000 |
| Route | EVINA Z175 SKARY DCT TOVKA DCT INSAX DCT PETOV/N0442F370 DCT SENTI/N0447F380 DCT RALAK G362 TRIFA |
| Aircraft | B738/M-SDE2E3FGHIRWXY/LB1 |
Departure
| Time | 2026-04-16 12:02 |
|---|---|
| Airport | Warsaw Chopin Airport (EPWA) |
Arrival
| Time | 2026-04-16 14:57 |
|---|---|
| Airport | Djerba Zarzis International Airport (DTTJ) |
| Time | Latitude | Longitude | Altitude | Speed | Heading |
|---|---|---|---|---|---|
| 2026-04-16 11:38 | 52.17238 | 20.96639 | 338 ft | 0 kts | 207° |
| 2026-04-16 11:56 | 52.17237 | 20.96639 | 338 ft | 1 kts | 207° |
| 2026-04-16 11:56 | 52.17218 | 20.96618 | 338 ft | 7 kts | 219° |
| 2026-04-16 11:56 | 52.17162 | 20.96597 | 334 ft | 12 kts | 158° |
| 2026-04-16 11:57 | 52.17053 | 20.96691 | 337 ft | 20 kts | 152° |
| 2026-04-16 11:57 | 52.16931 | 20.96798 | 336 ft | 20 kts | 152° |
| 2026-04-16 11:57 | 52.16812 | 20.96901 | 336 ft | 19 kts | 152° |
| 2026-04-16 11:57 | 52.16697 | 20.97001 | 334 ft | 18 kts | 152° |
| 2026-04-16 11:58 | 52.16587 | 20.97098 | 337 ft | 18 kts | 152° |
| 2026-04-16 11:58 | 52.16480 | 20.97191 | 335 ft | 17 kts | 152° |
| 2026-04-16 11:58 | 52.16402 | 20.97328 | 333 ft | 17 kts | 115° |
| 2026-04-16 11:58 | 52.16354 | 20.97494 | 336 ft | 16 kts | 115° |
| 2026-04-16 11:59 | 52.16309 | 20.97654 | 333 ft | 15 kts | 115° |
| 2026-04-16 11:59 | 52.16265 | 20.97808 | 336 ft | 15 kts | 115° |
| 2026-04-16 11:59 | 52.16224 | 20.97955 | 333 ft | 14 kts | 114° |
| 2026-04-16 11:59 | 52.16185 | 20.98097 | 334 ft | 13 kts | 114° |
| 2026-04-16 12:00 | 52.16147 | 20.98232 | 337 ft | 13 kts | 114° |
| 2026-04-16 12:00 | 52.16097 | 20.98333 | 334 ft | 5 kts | 143° |
| 2026-04-16 12:00 | 52.16107 | 20.98360 | 332 ft | 5 kts | 341° |
| 2026-04-16 12:00 | 52.16122 | 20.98323 | 331 ft | 0 kts | 294° |
| 2026-04-16 12:01 | 52.16124 | 20.98317 | 331 ft | 4 kts | 294° |
| 2026-04-16 12:01 | 52.16219 | 20.97978 | 335 ft | 67 kts | 295° |
| 2026-04-16 12:02 | 52.16944 | 20.95416 | 512 ft | 160 kts | 296° |
| 2026-04-16 12:02 | 52.17421 | 20.93792 | 1292 ft | 160 kts | 296° |
| 2026-04-16 12:02 | 52.17877 | 20.92141 | 2082 ft | 161 kts | 296° |
| 2026-04-16 12:02 | 52.18193 | 20.90383 | 2809 ft | 165 kts | 270° |
| 2026-04-16 12:03 | 52.17975 | 20.88508 | 3484 ft | 170 kts | 261° |
| 2026-04-16 12:03 | 52.17719 | 20.86499 | 3865 ft | 195 kts | 261° |
| 2026-04-16 12:03 | 52.17426 | 20.84211 | 4060 ft | 217 kts | 262° |
| 2026-04-16 12:03 | 52.16850 | 20.81803 | 4247 ft | 247 kts | 234° |
| 2026-04-16 12:04 | 52.15362 | 20.80186 | 4694 ft | 268 kts | 203° |
| 2026-04-16 12:04 | 52.13602 | 20.79196 | 5426 ft | 274 kts | 201° |
| 2026-04-16 12:04 | 52.11789 | 20.78221 | 6234 ft | 275 kts | 200° |
| 2026-04-16 12:04 | 52.09965 | 20.77234 | 6973 ft | 278 kts | 201° |
| 2026-04-16 12:05 | 52.08126 | 20.76216 | 7696 ft | 280 kts | 202° |
| 2026-04-16 12:05 | 52.06283 | 20.75177 | 8468 ft | 281 kts | 203° |
| 2026-04-16 12:05 | 52.04425 | 20.74116 | 9219 ft | 284 kts | 204° |
| 2026-04-16 12:05 | 52.02550 | 20.73033 | 9961 ft | 287 kts | 204° |
| 2026-04-16 12:06 | 52.00657 | 20.71931 | 10548 ft | 294 kts | 205° |
| 2026-04-16 12:06 | 51.98661 | 20.70756 | 10716 ft | 317 kts | 204° |
| 2026-04-16 12:06 | 51.96517 | 20.69492 | 10943 ft | 335 kts | 204° |
| 2026-04-16 12:06 | 51.94291 | 20.68185 | 11468 ft | 343 kts | 204° |
| 2026-04-16 12:07 | 51.92041 | 20.66870 | 12165 ft | 346 kts | 204° |
| 2026-04-16 12:07 | 51.89771 | 20.65544 | 12868 ft | 348 kts | 204° |
| 2026-04-16 12:07 | 51.87480 | 20.64206 | 13582 ft | 351 kts | 205° |
| 2026-04-16 12:07 | 51.85195 | 20.62869 | 14237 ft | 356 kts | 205° |
| 2026-04-16 12:08 | 51.82828 | 20.61485 | 14883 ft | 359 kts | 205° |
| 2026-04-16 12:08 | 51.80494 | 20.60121 | 15530 ft | 363 kts | 205° |
| 2026-04-16 12:08 | 51.78111 | 20.58730 | 16190 ft | 367 kts | 205° |
| 2026-04-16 12:08 | 51.75696 | 20.57322 | 16838 ft | 370 kts | 205° |
| 2026-04-16 12:09 | 51.73261 | 20.55902 | 17467 ft | 374 kts | 205° |
| 2026-04-16 12:09 | 51.70798 | 20.54468 | 18105 ft | 378 kts | 205° |
| 2026-04-16 12:09 | 51.68310 | 20.53023 | 18702 ft | 382 kts | 205° |
| 2026-04-16 12:09 | 51.65804 | 20.51568 | 19286 ft | 384 kts | 205° |
| 2026-04-16 12:10 | 51.63281 | 20.50107 | 19898 ft | 386 kts | 205° |
| 2026-04-16 12:10 | 51.60743 | 20.48638 | 20495 ft | 388 kts | 205° |
| 2026-04-16 12:10 | 51.58196 | 20.47165 | 21066 ft | 390 kts | 205° |
| 2026-04-16 12:10 | 51.55640 | 20.45688 | 21629 ft | 392 kts | 205° |
| 2026-04-16 12:11 | 51.53063 | 20.44200 | 22182 ft | 394 kts | 205° |
| 2026-04-16 12:11 | 51.50477 | 20.42709 | 22734 ft | 397 kts | 205° |
| 2026-04-16 12:11 | 51.47872 | 20.41209 | 23271 ft | 399 kts | 205° |
| 2026-04-16 12:11 | 51.45249 | 20.39700 | 23776 ft | 401 kts | 205° |
| 2026-04-16 12:12 | 51.42618 | 20.38190 | 24244 ft | 403 kts | 205° |
| 2026-04-16 12:12 | 51.39974 | 20.36673 | 24681 ft | 404 kts | 205° |
| 2026-04-16 12:12 | 51.37383 | 20.35075 | 25098 ft | 404 kts | 209° |
| 2026-04-16 12:12 | 51.34814 | 20.33240 | 25514 ft | 405 kts | 211° |
| 2026-04-16 12:13 | 51.32267 | 20.31323 | 25922 ft | 406 kts | 211° |
| 2026-04-16 12:13 | 51.29707 | 20.29373 | 26329 ft | 408 kts | 211° |
| 2026-04-16 12:13 | 51.27138 | 20.27419 | 26730 ft | 410 kts | 211° |
| 2026-04-16 12:13 | 51.24555 | 20.25471 | 27118 ft | 412 kts | 211° |
| 2026-04-16 12:14 | 51.21950 | 20.23521 | 27472 ft | 414 kts | 211° |
| 2026-04-16 12:14 | 51.19329 | 20.21574 | 27844 ft | 416 kts | 211° |
| 2026-04-16 12:14 | 51.16696 | 20.19625 | 28208 ft | 418 kts | 211° |
| 2026-04-16 12:14 | 51.14054 | 20.17677 | 28562 ft | 420 kts | 211° |
| 2026-04-16 12:15 | 51.11392 | 20.15719 | 28927 ft | 422 kts | 211° |
| 2026-04-16 12:15 | 51.08719 | 20.13756 | 29263 ft | 424 kts | 211° |
| 2026-04-16 12:15 | 51.06033 | 20.11785 | 29600 ft | 426 kts | 211° |
| 2026-04-16 12:15 | 51.03333 | 20.09808 | 29913 ft | 428 kts | 211° |
| 2026-04-16 12:16 | 51.01542 | 20.08496 | 30088 ft | 429 kts | 211° |
| 2026-04-16 12:16 | 50.98820 | 20.06506 | 30383 ft | 431 kts | 211° |
| 2026-04-16 12:16 | 50.96098 | 20.04520 | 30739 ft | 430 kts | 211° |
| 2026-04-16 12:16 | 50.93388 | 20.02548 | 31168 ft | 427 kts | 211° |
| 2026-04-16 12:17 | 50.90704 | 20.00596 | 31576 ft | 425 kts | 211° |
| 2026-04-16 12:17 | 50.88021 | 19.98646 | 31922 ft | 424 kts | 211° |
| 2026-04-16 12:17 | 50.85342 | 19.96699 | 32261 ft | 423 kts | 211° |
| 2026-04-16 12:17 | 50.82667 | 19.94758 | 32638 ft | 422 kts | 211° |
| 2026-04-16 12:18 | 50.80001 | 19.92826 | 33013 ft | 420 kts | 211° |
| 2026-04-16 12:18 | 50.77346 | 19.90904 | 33353 ft | 419 kts | 211° |
| 2026-04-16 12:18 | 50.74694 | 19.88987 | 33643 ft | 419 kts | 211° |
| 2026-04-16 12:18 | 50.72044 | 19.87072 | 33955 ft | 419 kts | 211° |
| 2026-04-16 12:19 | 50.69398 | 19.85165 | 34281 ft | 417 kts | 211° |
| 2026-04-16 12:19 | 50.66763 | 19.83267 | 34516 ft | 417 kts | 211° |
| 2026-04-16 12:19 | 50.64118 | 19.81363 | 34699 ft | 418 kts | 211° |
| 2026-04-16 12:19 | 50.61464 | 19.79454 | 34885 ft | 419 kts | 210° |
| 2026-04-16 12:20 | 50.58808 | 19.77548 | 35118 ft | 419 kts | 210° |
| 2026-04-16 12:20 | 50.56156 | 19.75648 | 35311 ft | 419 kts | 210° |
| 2026-04-16 12:20 | 50.53494 | 19.73743 | 35482 ft | 421 kts | 210° |
| 2026-04-16 12:20 | 50.50830 | 19.71838 | 35673 ft | 421 kts | 210° |
| 2026-04-16 12:21 | 50.48156 | 19.69929 | 35902 ft | 421 kts | 210° |
| 2026-04-16 12:21 | 50.45494 | 19.68032 | 36108 ft | 421 kts | 210° |
| 2026-04-16 12:21 | 50.40129 | 19.64211 | 36180 ft | 425 kts | 210° |
| 2026-04-16 12:22 | 50.34807 | 19.60435 | 36167 ft | 420 kts | 210° |
| 2026-04-16 12:22 | 50.29497 | 19.56678 | 36181 ft | 417 kts | 210° |
| 2026-04-16 12:23 | 50.24218 | 19.52948 | 36189 ft | 416 kts | 210° |
| 2026-04-16 12:23 | 50.18953 | 19.49237 | 36192 ft | 415 kts | 210° |
| 2026-04-16 12:24 | 50.13689 | 19.45534 | 36179 ft | 415 kts | 210° |
| 2026-04-16 12:24 | 50.08420 | 19.41838 | 36193 ft | 416 kts | 210° |
| 2026-04-16 12:25 | 50.03133 | 19.38137 | 36191 ft | 418 kts | 210° |
| 2026-04-16 12:25 | 49.97819 | 19.34428 | 36197 ft | 419 kts | 210° |
| 2026-04-16 12:26 | 49.92514 | 19.30734 | 36179 ft | 421 kts | 209° |
| 2026-04-16 12:26 | 49.87153 | 19.27010 | 36194 ft | 423 kts | 209° |
| 2026-04-16 12:27 | 49.81774 | 19.23283 | 36208 ft | 424 kts | 209° |
| 2026-04-16 12:27 | 49.76371 | 19.19549 | 36199 ft | 425 kts | 209° |
| 2026-04-16 12:28 | 49.70976 | 19.15830 | 36181 ft | 424 kts | 209° |
| 2026-04-16 12:28 | 49.65589 | 19.12125 | 36192 ft | 424 kts | 209° |
| 2026-04-16 12:29 | 49.60207 | 19.08432 | 36198 ft | 423 kts | 209° |
| 2026-04-16 12:29 | 49.54823 | 19.04744 | 36196 ft | 423 kts | 209° |
| 2026-04-16 12:30 | 49.49483 | 19.01097 | 36200 ft | 422 kts | 209° |
| 2026-04-16 12:30 | 49.44423 | 18.96709 | 36204 ft | 413 kts | 223° |
| 2026-04-16 12:31 | 49.40435 | 18.90522 | 36211 ft | 406 kts | 233° |
| 2026-04-16 12:31 | 49.36803 | 18.83876 | 36197 ft | 407 kts | 233° |
| 2026-04-16 12:32 | 49.33159 | 18.77241 | 36168 ft | 407 kts | 233° |
| 2026-04-16 12:32 | 49.29496 | 18.70629 | 36178 ft | 407 kts | 233° |
| 2026-04-16 12:33 | 49.25821 | 18.64028 | 36186 ft | 407 kts | 233° |
| 2026-04-16 12:33 | 49.22144 | 18.57447 | 36182 ft | 407 kts | 233° |
| 2026-04-16 12:34 | 49.18455 | 18.50860 | 36193 ft | 408 kts | 233° |
| 2026-04-16 12:34 | 49.14761 | 18.44280 | 36167 ft | 408 kts | 233° |
| 2026-04-16 12:35 | 49.11059 | 18.37704 | 36184 ft | 408 kts | 232° |
| 2026-04-16 12:35 | 49.07373 | 18.31170 | 36199 ft | 409 kts | 232° |
| 2026-04-16 12:36 | 49.03658 | 18.24603 | 36190 ft | 409 kts | 232° |
| 2026-04-16 12:36 | 48.99939 | 18.18045 | 36195 ft | 409 kts | 232° |
| 2026-04-16 12:37 | 48.96219 | 18.11502 | 36184 ft | 409 kts | 232° |
| 2026-04-16 12:37 | 48.92494 | 18.04966 | 36184 ft | 409 kts | 232° |
| 2026-04-16 12:38 | 48.88762 | 17.98432 | 36182 ft | 409 kts | 232° |
| 2026-04-16 12:38 | 48.85028 | 17.91912 | 36197 ft | 409 kts | 232° |
| 2026-04-16 12:39 | 48.81288 | 17.85400 | 36183 ft | 409 kts | 232° |
| 2026-04-16 12:39 | 48.77568 | 17.78936 | 36178 ft | 409 kts | 232° |
| 2026-04-16 12:40 | 48.73817 | 17.72434 | 36192 ft | 410 kts | 232° |
| 2026-04-16 12:40 | 48.70055 | 17.65930 | 36192 ft | 410 kts | 232° |
| 2026-04-16 12:41 | 48.66289 | 17.59435 | 36189 ft | 410 kts | 232° |
| 2026-04-16 12:41 | 48.62524 | 17.52957 | 36193 ft | 410 kts | 232° |
| 2026-04-16 12:42 | 48.58747 | 17.46476 | 36185 ft | 410 kts | 231° |
| 2026-04-16 12:42 | 48.54973 | 17.40015 | 36183 ft | 411 kts | 231° |
| 2026-04-16 12:43 | 48.51190 | 17.33553 | 36186 ft | 411 kts | 231° |
| 2026-04-16 12:43 | 48.47404 | 17.27104 | 36188 ft | 411 kts | 231° |
| 2026-04-16 12:44 | 48.43636 | 17.20698 | 36166 ft | 411 kts | 231° |
| 2026-04-16 12:44 | 48.39844 | 17.14269 | 36178 ft | 411 kts | 231° |
| 2026-04-16 12:45 | 48.36039 | 17.07832 | 36185 ft | 411 kts | 231° |
| 2026-04-16 12:45 | 48.32236 | 17.01412 | 36184 ft | 411 kts | 231° |
| 2026-04-16 12:46 | 48.28380 | 16.95073 | 36177 ft | 413 kts | 225° |
| 2026-04-16 12:46 | 48.23640 | 16.90144 | 36173 ft | 420 kts | 209° |
| 2026-04-16 12:47 | 48.18317 | 16.86495 | 36205 ft | 421 kts | 208° |
| 2026-04-16 12:47 | 48.12981 | 16.82899 | 36209 ft | 421 kts | 208° |
| 2026-04-16 12:48 | 48.07638 | 16.79265 | 36208 ft | 422 kts | 208° |
| 2026-04-16 12:48 | 48.02293 | 16.75609 | 36210 ft | 423 kts | 208° |
| 2026-04-16 12:49 | 47.96976 | 16.71972 | 36214 ft | 424 kts | 208° |
| 2026-04-16 12:49 | 47.91610 | 16.68308 | 36205 ft | 425 kts | 208° |
| 2026-04-16 12:50 | 47.86233 | 16.64648 | 36208 ft | 425 kts | 208° |
| 2026-04-16 12:50 | 47.80844 | 16.60987 | 36206 ft | 426 kts | 208° |
| 2026-04-16 12:51 | 47.75445 | 16.57328 | 36205 ft | 426 kts | 208° |
| 2026-04-16 12:51 | 47.70037 | 16.53671 | 36208 ft | 427 kts | 208° |
| 2026-04-16 12:52 | 47.64630 | 16.50024 | 36210 ft | 427 kts | 208° |
| 2026-04-16 12:52 | 47.59225 | 16.46386 | 36207 ft | 427 kts | 208° |
| 2026-04-16 12:53 | 47.53854 | 16.42779 | 36207 ft | 426 kts | 208° |
| 2026-04-16 12:53 | 47.48459 | 16.39164 | 36206 ft | 425 kts | 208° |
| 2026-04-16 12:54 | 47.43068 | 16.35560 | 36199 ft | 425 kts | 207° |
| 2026-04-16 12:54 | 47.37686 | 16.31969 | 36205 ft | 425 kts | 207° |
| 2026-04-16 12:55 | 47.32299 | 16.28384 | 36218 ft | 425 kts | 207° |
| 2026-04-16 12:55 | 47.26908 | 16.24804 | 36192 ft | 425 kts | 207° |
| 2026-04-16 12:56 | 47.21501 | 16.21221 | 36200 ft | 426 kts | 207° |
| 2026-04-16 12:56 | 47.16090 | 16.17643 | 36207 ft | 427 kts | 207° |
| 2026-04-16 12:57 | 47.10655 | 16.14057 | 36205 ft | 428 kts | 207° |
| 2026-04-16 12:57 | 47.05211 | 16.10473 | 36196 ft | 430 kts | 207° |
| 2026-04-16 12:58 | 46.99530 | 16.07678 | 36206 ft | 435 kts | 191° |
| 2026-04-16 12:58 | 46.93476 | 16.06759 | 36204 ft | 438 kts | 188° |
| 2026-04-16 12:59 | 46.87406 | 16.05934 | 36203 ft | 438 kts | 188° |
| 2026-04-16 13:00 | 46.78335 | 16.04616 | 36205 ft | 439 kts | 188° |
| 2026-04-16 13:00 | 46.72256 | 16.03708 | 36200 ft | 439 kts | 188° |
| 2026-04-16 13:01 | 46.66168 | 16.02799 | 36186 ft | 439 kts | 188° |
| 2026-04-16 13:01 | 46.60088 | 16.01895 | 36195 ft | 439 kts | 188° |
| 2026-04-16 13:02 | 46.54004 | 16.00993 | 36195 ft | 439 kts | 188° |
| 2026-04-16 13:02 | 46.47926 | 16.00094 | 36193 ft | 439 kts | 188° |
| 2026-04-16 13:03 | 46.41847 | 15.99197 | 36184 ft | 439 kts | 188° |
| 2026-04-16 13:03 | 46.36787 | 15.98451 | 36192 ft | 439 kts | 188° |
| 2026-04-16 13:04 | 46.30712 | 15.97476 | 36187 ft | 439 kts | 192° |
| 2026-04-16 13:04 | 46.23920 | 15.94703 | 36177 ft | 437 kts | 199° |
| 2026-04-16 13:05 | 46.19022 | 15.92478 | 36307 ft | 442 kts | 199° |
| 2026-04-16 13:05 | 46.16088 | 15.91159 | 36529 ft | 442 kts | 199° |
| 2026-04-16 13:05 | 46.13154 | 15.89858 | 36830 ft | 440 kts | 199° |
| 2026-04-16 13:05 | 46.10263 | 15.88589 | 37112 ft | 438 kts | 198° |
| 2026-04-16 13:06 | 46.07339 | 15.87314 | 37170 ft | 441 kts | 198° |
| 2026-04-16 13:06 | 46.01443 | 15.84762 | 37173 ft | 443 kts | 198° |
| 2026-04-16 13:07 | 45.95558 | 15.82225 | 37188 ft | 440 kts | 198° |
| 2026-04-16 13:07 | 45.89698 | 15.79704 | 37180 ft | 439 kts | 198° |
| 2026-04-16 13:08 | 45.83874 | 15.77203 | 37171 ft | 437 kts | 198° |
| 2026-04-16 13:08 | 45.78045 | 15.74704 | 37185 ft | 437 kts | 198° |
| 2026-04-16 13:09 | 45.72221 | 15.72212 | 37184 ft | 438 kts | 198° |
| 2026-04-16 13:09 | 45.66362 | 15.69711 | 37169 ft | 440 kts | 198° |
| 2026-04-16 13:10 | 45.60526 | 15.67226 | 37177 ft | 442 kts | 198° |
| 2026-04-16 13:10 | 45.54621 | 15.64716 | 37173 ft | 443 kts | 198° |
| 2026-04-16 13:11 | 45.48692 | 15.62203 | 37160 ft | 445 kts | 198° |
| 2026-04-16 13:11 | 45.42745 | 15.59686 | 37164 ft | 446 kts | 197° |
| 2026-04-16 13:12 | 45.36779 | 15.57168 | 37165 ft | 448 kts | 198° |
| 2026-04-16 13:12 | 45.30796 | 15.54648 | 37168 ft | 449 kts | 197° |
| 2026-04-16 13:13 | 45.24789 | 15.52124 | 37159 ft | 451 kts | 197° |
| 2026-04-16 13:13 | 45.18761 | 15.49596 | 37164 ft | 451 kts | 197° |
| 2026-04-16 13:14 | 45.12738 | 15.47076 | 37156 ft | 452 kts | 197° |
| 2026-04-16 13:14 | 45.06743 | 15.44572 | 37158 ft | 452 kts | 197° |
| 2026-04-16 13:15 | 45.00702 | 15.42056 | 37150 ft | 452 kts | 197° |
| 2026-04-16 13:15 | 44.94664 | 15.39546 | 37166 ft | 452 kts | 197° |
| 2026-04-16 13:16 | 44.88612 | 15.37036 | 37136 ft | 453 kts | 196° |
| 2026-04-16 13:16 | 44.82558 | 15.34530 | 37144 ft | 454 kts | 196° |
| 2026-04-16 13:17 | 44.76485 | 15.32023 | 37134 ft | 455 kts | 196° |
| 2026-04-16 13:17 | 44.70403 | 15.29517 | 37138 ft | 456 kts | 196° |
| 2026-04-16 13:18 | 44.64307 | 15.27010 | 37110 ft | 457 kts | 195° |
| 2026-04-16 13:18 | 44.58199 | 15.24504 | 37114 ft | 458 kts | 195° |
| 2026-04-16 13:19 | 44.52117 | 15.22015 | 37126 ft | 458 kts | 195° |
| 2026-04-16 13:19 | 44.45991 | 15.19513 | 37104 ft | 459 kts | 195° |
| 2026-04-16 13:20 | 44.39867 | 15.17017 | 37095 ft | 458 kts | 195° |
| 2026-04-16 13:20 | 44.33738 | 15.14524 | 37089 ft | 458 kts | 195° |
| 2026-04-16 13:21 | 44.27612 | 15.12039 | 37085 ft | 458 kts | 195° |
| 2026-04-16 13:21 | 44.21500 | 15.09564 | 37084 ft | 458 kts | 195° |
| 2026-04-16 13:22 | 44.15376 | 15.07090 | 37081 ft | 457 kts | 194° |
| 2026-04-16 13:22 | 44.09264 | 15.04625 | 37086 ft | 457 kts | 194° |
| 2026-04-16 13:23 | 44.03153 | 15.02167 | 37090 ft | 457 kts | 194° |
| 2026-04-16 13:23 | 43.97034 | 14.99711 | 37093 ft | 458 kts | 194° |
| 2026-04-16 13:24 | 43.90917 | 14.97260 | 37099 ft | 458 kts | 194° |
| 2026-04-16 13:24 | 43.84789 | 14.94811 | 37094 ft | 458 kts | 194° |
| 2026-04-16 13:25 | 43.78661 | 14.92367 | 37095 ft | 458 kts | 194° |
| 2026-04-16 13:25 | 43.72515 | 14.89921 | 37105 ft | 462 kts | 194° |
| 2026-04-16 13:26 | 43.66284 | 14.87448 | 37107 ft | 470 kts | 194° |
| 2026-04-16 13:26 | 43.59981 | 14.84950 | 37109 ft | 473 kts | 194° |
| 2026-04-16 13:27 | 43.53632 | 14.82439 | 37097 ft | 475 kts | 194° |
| 2026-04-16 13:27 | 43.47304 | 14.79942 | 37098 ft | 476 kts | 194° |
| 2026-04-16 13:28 | 43.40945 | 14.77438 | 37099 ft | 475 kts | 194° |
| 2026-04-16 13:28 | 43.34596 | 14.74943 | 37098 ft | 473 kts | 194° |
| 2026-04-16 13:29 | 43.28275 | 14.72465 | 37095 ft | 472 kts | 194° |
| 2026-04-16 13:29 | 43.21977 | 14.70002 | 37105 ft | 470 kts | 194° |
| 2026-04-16 13:30 | 43.15702 | 14.67553 | 37096 ft | 468 kts | 194° |
| 2026-04-16 13:30 | 43.09444 | 14.65116 | 37101 ft | 466 kts | 194° |
| 2026-04-16 13:31 | 43.03205 | 14.62691 | 37108 ft | 465 kts | 194° |
| 2026-04-16 13:31 | 42.96983 | 14.60278 | 37105 ft | 465 kts | 194° |
| 2026-04-16 13:32 | 42.90765 | 14.57872 | 37109 ft | 464 kts | 194° |
| 2026-04-16 13:32 | 42.84550 | 14.55472 | 37110 ft | 464 kts | 195° |
| 2026-04-16 13:33 | 42.78323 | 14.53072 | 37105 ft | 464 kts | 195° |
| 2026-04-16 13:33 | 42.72107 | 14.50682 | 37109 ft | 465 kts | 194° |
| 2026-04-16 13:34 | 42.65877 | 14.48291 | 37122 ft | 465 kts | 195° |
| 2026-04-16 13:34 | 42.59689 | 14.45921 | 37117 ft | 465 kts | 195° |
| 2026-04-16 13:35 | 42.53456 | 14.43539 | 37127 ft | 465 kts | 195° |
| 2026-04-16 13:35 | 42.47226 | 14.41163 | 37134 ft | 465 kts | 195° |
| 2026-04-16 13:36 | 42.40995 | 14.38791 | 37124 ft | 465 kts | 195° |
| 2026-04-16 13:36 | 42.34762 | 14.36424 | 37129 ft | 465 kts | 195° |
| 2026-04-16 13:37 | 42.28541 | 14.34065 | 37130 ft | 464 kts | 194° |
| 2026-04-16 13:37 | 42.22305 | 14.31707 | 37122 ft | 464 kts | 194° |
| 2026-04-16 13:38 | 42.16131 | 14.29376 | 37121 ft | 464 kts | 194° |
| 2026-04-16 13:38 | 42.09916 | 14.27034 | 37119 ft | 464 kts | 194° |
| 2026-04-16 13:39 | 42.03690 | 14.24694 | 37115 ft | 464 kts | 194° |
| 2026-04-16 13:39 | 41.97474 | 14.22362 | 37108 ft | 464 kts | 194° |
| 2026-04-16 13:40 | 41.91264 | 14.20037 | 37106 ft | 464 kts | 194° |
| 2026-04-16 13:40 | 41.85072 | 14.17723 | 37114 ft | 464 kts | 194° |
| 2026-04-16 13:41 | 41.78843 | 14.15400 | 37113 ft | 465 kts | 194° |
| 2026-04-16 13:41 | 41.72612 | 14.13081 | 37108 ft | 465 kts | 194° |
| 2026-04-16 13:42 | 41.66363 | 14.10760 | 37103 ft | 466 kts | 194° |
| 2026-04-16 13:42 | 41.60108 | 14.08441 | 37101 ft | 467 kts | 194° |
| 2026-04-16 13:43 | 41.53845 | 14.06124 | 37103 ft | 467 kts | 194° |
| 2026-04-16 13:43 | 41.47574 | 14.03809 | 37092 ft | 468 kts | 194° |
| 2026-04-16 13:44 | 41.41304 | 14.01499 | 37078 ft | 468 kts | 194° |
| 2026-04-16 13:44 | 41.35034 | 13.99193 | 37077 ft | 467 kts | 194° |
| 2026-04-16 13:45 | 41.28770 | 13.96894 | 37068 ft | 466 kts | 194° |
| 2026-04-16 13:45 | 41.22517 | 13.94604 | 37063 ft | 465 kts | 194° |
| 2026-04-16 13:46 | 41.16284 | 13.92326 | 37083 ft | 465 kts | 194° |
| 2026-04-16 13:46 | 41.10052 | 13.90052 | 37085 ft | 464 kts | 194° |
| 2026-04-16 13:47 | 41.03859 | 13.87798 | 37074 ft | 464 kts | 194° |
| 2026-04-16 13:47 | 40.97634 | 13.85536 | 37052 ft | 464 kts | 194° |
| 2026-04-16 13:48 | 40.91413 | 13.83280 | 37068 ft | 464 kts | 194° |
| 2026-04-16 13:48 | 40.85179 | 13.81023 | 37067 ft | 465 kts | 194° |
| 2026-04-16 13:49 | 40.78938 | 13.78769 | 37070 ft | 466 kts | 194° |
| 2026-04-16 13:49 | 40.72677 | 13.76512 | 37078 ft | 467 kts | 194° |
| 2026-04-16 13:50 | 40.66400 | 13.74253 | 37075 ft | 468 kts | 194° |
| 2026-04-16 13:50 | 40.60149 | 13.72008 | 37061 ft | 469 kts | 194° |
| 2026-04-16 13:51 | 40.53838 | 13.69746 | 37061 ft | 470 kts | 194° |
| 2026-04-16 13:51 | 40.47531 | 13.67489 | 37066 ft | 470 kts | 194° |
| 2026-04-16 13:52 | 40.41224 | 13.65238 | 37062 ft | 470 kts | 194° |
| 2026-04-16 13:52 | 40.35983 | 13.63369 | 37062 ft | 469 kts | 194° |
| 2026-04-16 13:53 | 40.29685 | 13.61129 | 37073 ft | 469 kts | 194° |
| 2026-04-16 13:53 | 40.23395 | 13.58895 | 37062 ft | 468 kts | 194° |
| 2026-04-16 13:54 | 40.17115 | 13.56669 | 37063 ft | 467 kts | 194° |
| 2026-04-16 13:54 | 40.10842 | 13.54450 | 37074 ft | 466 kts | 194° |
| 2026-04-16 13:55 | 40.04578 | 13.52239 | 37060 ft | 466 kts | 194° |
| 2026-04-16 13:55 | 39.98313 | 13.50032 | 37063 ft | 465 kts | 194° |
| 2026-04-16 13:56 | 39.92066 | 13.47834 | 37061 ft | 465 kts | 194° |
| 2026-04-16 13:56 | 39.85847 | 13.45651 | 37066 ft | 466 kts | 194° |
| 2026-04-16 13:57 | 39.79575 | 13.43453 | 37064 ft | 467 kts | 194° |
| 2026-04-16 13:57 | 39.73301 | 13.41260 | 37064 ft | 468 kts | 194° |
| 2026-04-16 13:58 | 39.63845 | 13.37960 | 37067 ft | 469 kts | 194° |
| 2026-04-16 13:58 | 39.57528 | 13.35761 | 37063 ft | 470 kts | 194° |
| 2026-04-16 13:59 | 39.51200 | 13.33563 | 37063 ft | 471 kts | 194° |
| 2026-04-16 13:59 | 39.44866 | 13.31367 | 37066 ft | 472 kts | 194° |
| 2026-04-16 14:00 | 39.38527 | 13.29173 | 37062 ft | 472 kts | 194° |
| 2026-04-16 14:00 | 39.32223 | 13.26995 | 37064 ft | 472 kts | 194° |
| 2026-04-16 14:01 | 39.25885 | 13.24809 | 37069 ft | 471 kts | 194° |
| 2026-04-16 14:01 | 39.19548 | 13.22628 | 37061 ft | 471 kts | 194° |
| 2026-04-16 14:02 | 39.13218 | 13.20454 | 37060 ft | 469 kts | 194° |
| 2026-04-16 14:02 | 39.06980 | 13.18314 | 37054 ft | 459 kts | 194° |
| 2026-04-16 14:03 | 39.00825 | 13.16207 | 37064 ft | 456 kts | 194° |
| 2026-04-16 14:03 | 38.94698 | 13.14114 | 37060 ft | 454 kts | 194° |
| 2026-04-16 14:04 | 38.88592 | 13.12032 | 37058 ft | 455 kts | 194° |
| 2026-04-16 14:04 | 38.82410 | 13.09928 | 37080 ft | 463 kts | 194° |
| 2026-04-16 14:05 | 38.76167 | 13.07806 | 37063 ft | 465 kts | 194° |
| 2026-04-16 14:05 | 38.69938 | 13.05693 | 37058 ft | 466 kts | 194° |
| 2026-04-16 14:06 | 38.63669 | 13.03570 | 37058 ft | 466 kts | 194° |
| 2026-04-16 14:06 | 38.57408 | 13.01454 | 37057 ft | 465 kts | 195° |
| 2026-04-16 14:07 | 38.51162 | 12.99347 | 37052 ft | 463 kts | 195° |
| 2026-04-16 14:07 | 38.44946 | 12.97253 | 37053 ft | 462 kts | 195° |
| 2026-04-16 14:08 | 38.38739 | 12.95167 | 37054 ft | 460 kts | 195° |
| 2026-04-16 14:08 | 38.32558 | 12.93093 | 37050 ft | 459 kts | 195° |
| 2026-04-16 14:09 | 38.26393 | 12.91027 | 37050 ft | 457 kts | 195° |
| 2026-04-16 14:09 | 38.20277 | 12.88982 | 37050 ft | 457 kts | 194° |
| 2026-04-16 14:10 | 38.14132 | 12.86931 | 37048 ft | 456 kts | 195° |
| 2026-04-16 14:10 | 38.07985 | 12.84882 | 37054 ft | 457 kts | 195° |
| 2026-04-16 14:11 | 38.01834 | 12.82836 | 37053 ft | 458 kts | 195° |
| 2026-04-16 14:11 | 37.95663 | 12.80787 | 37053 ft | 459 kts | 195° |
| 2026-04-16 14:12 | 37.89471 | 12.78734 | 37040 ft | 460 kts | 195° |
| 2026-04-16 14:12 | 37.83264 | 12.76680 | 37021 ft | 461 kts | 195° |
| 2026-04-16 14:13 | 37.77041 | 12.74624 | 37033 ft | 462 kts | 195° |
| 2026-04-16 14:13 | 37.70812 | 12.72570 | 37039 ft | 463 kts | 195° |
| 2026-04-16 14:14 | 37.64570 | 12.70515 | 37037 ft | 464 kts | 195° |
| 2026-04-16 14:14 | 37.58352 | 12.68471 | 37035 ft | 465 kts | 195° |
| 2026-04-16 14:15 | 37.52094 | 12.66418 | 37035 ft | 465 kts | 195° |
| 2026-04-16 14:15 | 37.45831 | 12.64367 | 37034 ft | 465 kts | 195° |
| 2026-04-16 14:16 | 37.39566 | 12.62318 | 37035 ft | 465 kts | 195° |
| 2026-04-16 14:16 | 37.33312 | 12.60277 | 37034 ft | 464 kts | 195° |
| 2026-04-16 14:17 | 37.27054 | 12.58238 | 37033 ft | 464 kts | 195° |
| 2026-04-16 14:17 | 37.20855 | 12.56220 | 37035 ft | 463 kts | 195° |
| 2026-04-16 14:18 | 37.14647 | 12.54096 | 37033 ft | 462 kts | 198° |
| 2026-04-16 14:18 | 37.08539 | 12.51602 | 37034 ft | 462 kts | 199° |
| 2026-04-16 14:19 | 37.02449 | 12.49037 | 37032 ft | 461 kts | 199° |
| 2026-04-16 14:19 | 36.96352 | 12.46507 | 37039 ft | 461 kts | 199° |
| 2026-04-16 14:20 | 36.90255 | 12.44008 | 37036 ft | 461 kts | 199° |
| 2026-04-16 14:20 | 36.84148 | 12.41520 | 37036 ft | 462 kts | 199° |
| 2026-04-16 14:21 | 36.78041 | 12.39037 | 37024 ft | 462 kts | 199° |
| 2026-04-16 14:21 | 36.71920 | 12.36551 | 37035 ft | 463 kts | 199° |
| 2026-04-16 14:22 | 36.65783 | 12.34062 | 37039 ft | 464 kts | 199° |
| 2026-04-16 14:22 | 36.59677 | 12.31590 | 37036 ft | 465 kts | 199° |
| 2026-04-16 14:23 | 36.53470 | 12.29081 | 37035 ft | 466 kts | 199° |
| 2026-04-16 14:23 | 36.47336 | 12.26606 | 37037 ft | 467 kts | 199° |
| 2026-04-16 14:24 | 36.41148 | 12.24113 | 37035 ft | 468 kts | 199° |
| 2026-04-16 14:24 | 36.34956 | 12.21622 | 37035 ft | 468 kts | 200° |
| 2026-04-16 14:25 | 36.28742 | 12.19128 | 37032 ft | 469 kts | 200° |
| 2026-04-16 14:25 | 36.22532 | 12.16638 | 37035 ft | 469 kts | 200° |
| 2026-04-16 14:26 | 36.16319 | 12.14152 | 37036 ft | 469 kts | 200° |
| 2026-04-16 14:26 | 36.10151 | 12.11688 | 37024 ft | 469 kts | 200° |
| 2026-04-16 14:27 | 36.03939 | 12.09211 | 37033 ft | 469 kts | 200° |
| 2026-04-16 14:27 | 35.97730 | 12.06738 | 37032 ft | 469 kts | 200° |
| 2026-04-16 14:28 | 35.91522 | 12.04270 | 37027 ft | 468 kts | 200° |
| 2026-04-16 14:28 | 35.85316 | 12.01808 | 37010 ft | 469 kts | 200° |
| 2026-04-16 14:29 | 35.82199 | 12.00571 | 36655 ft | 471 kts | 200° |
| 2026-04-16 14:29 | 35.79100 | 11.99345 | 36341 ft | 465 kts | 200° |
| 2026-04-16 14:29 | 35.76028 | 11.98131 | 35937 ft | 461 kts | 200° |
| 2026-04-16 14:29 | 35.72990 | 11.96930 | 35544 ft | 457 kts | 200° |
| 2026-04-16 14:30 | 35.69970 | 11.95738 | 35149 ft | 454 kts | 200° |
| 2026-04-16 14:30 | 35.66972 | 11.94554 | 34755 ft | 452 kts | 200° |
| 2026-04-16 14:30 | 35.63982 | 11.93374 | 34340 ft | 450 kts | 200° |
| 2026-04-16 14:30 | 35.61012 | 11.92203 | 33931 ft | 447 kts | 200° |
| 2026-04-16 14:31 | 35.58051 | 11.91037 | 33465 ft | 445 kts | 200° |
| 2026-04-16 14:31 | 35.55116 | 11.89881 | 33060 ft | 441 kts | 200° |
| 2026-04-16 14:31 | 35.52205 | 11.88737 | 32665 ft | 438 kts | 199° |
| 2026-04-16 14:31 | 35.49307 | 11.87598 | 32278 ft | 435 kts | 199° |
| 2026-04-16 14:32 | 35.46475 | 11.86486 | 31896 ft | 431 kts | 199° |
| 2026-04-16 14:32 | 35.43631 | 11.85370 | 31524 ft | 428 kts | 199° |
| 2026-04-16 14:32 | 35.40803 | 11.84261 | 31157 ft | 425 kts | 199° |
| 2026-04-16 14:32 | 35.37998 | 11.83162 | 30783 ft | 422 kts | 198° |
| 2026-04-16 14:33 | 35.35203 | 11.82067 | 30417 ft | 419 kts | 198° |
| 2026-04-16 14:33 | 35.32437 | 11.80985 | 30044 ft | 416 kts | 198° |
| 2026-04-16 14:33 | 35.29689 | 11.79910 | 29609 ft | 413 kts | 198° |
| 2026-04-16 14:33 | 35.26963 | 11.78845 | 29217 ft | 409 kts | 198° |
| 2026-04-16 14:34 | 35.24270 | 11.77794 | 28827 ft | 405 kts | 198° |
| 2026-04-16 14:34 | 35.21599 | 11.76752 | 28457 ft | 401 kts | 198° |
| 2026-04-16 14:34 | 35.18951 | 11.75720 | 28066 ft | 397 kts | 198° |
| 2026-04-16 14:34 | 35.16326 | 11.74697 | 27698 ft | 394 kts | 198° |
| 2026-04-16 14:35 | 35.13721 | 11.73683 | 27320 ft | 391 kts | 198° |
| 2026-04-16 14:35 | 35.11138 | 11.72678 | 26955 ft | 388 kts | 198° |
| 2026-04-16 14:35 | 35.08605 | 11.71693 | 26594 ft | 386 kts | 198° |
| 2026-04-16 14:35 | 35.06060 | 11.70704 | 26232 ft | 383 kts | 198° |
| 2026-04-16 14:36 | 35.03526 | 11.69720 | 25874 ft | 380 kts | 198° |
| 2026-04-16 14:36 | 35.01015 | 11.68746 | 25519 ft | 378 kts | 198° |
| 2026-04-16 14:36 | 34.98509 | 11.67774 | 25162 ft | 376 kts | 198° |
| 2026-04-16 14:36 | 34.96023 | 11.66811 | 24789 ft | 375 kts | 198° |
| 2026-04-16 14:37 | 34.93537 | 11.65848 | 24448 ft | 375 kts | 198° |
| 2026-04-16 14:37 | 34.91045 | 11.64883 | 24076 ft | 377 kts | 198° |
| 2026-04-16 14:37 | 34.88548 | 11.63917 | 23712 ft | 376 kts | 198° |
| 2026-04-16 14:37 | 34.86052 | 11.62952 | 23282 ft | 376 kts | 198° |
| 2026-04-16 14:38 | 34.83571 | 11.61994 | 22894 ft | 373 kts | 198° |
| 2026-04-16 14:38 | 34.81101 | 11.61040 | 22527 ft | 371 kts | 198° |
| 2026-04-16 14:38 | 34.78648 | 11.60094 | 22172 ft | 368 kts | 198° |
| 2026-04-16 14:38 | 34.76217 | 11.59156 | 21813 ft | 366 kts | 198° |
| 2026-04-16 14:39 | 34.73798 | 11.58224 | 21464 ft | 364 kts | 198° |
| 2026-04-16 14:39 | 34.71391 | 11.57297 | 21113 ft | 361 kts | 198° |
| 2026-04-16 14:39 | 34.69006 | 11.56379 | 20773 ft | 359 kts | 198° |
| 2026-04-16 14:39 | 34.66628 | 11.55464 | 20421 ft | 357 kts | 198° |
| 2026-04-16 14:40 | 34.64261 | 11.54554 | 20071 ft | 356 kts | 198° |
| 2026-04-16 14:40 | 34.61909 | 11.53650 | 19733 ft | 354 kts | 198° |
| 2026-04-16 14:40 | 34.59593 | 11.52760 | 19392 ft | 353 kts | 198° |
| 2026-04-16 14:40 | 34.57256 | 11.51863 | 19047 ft | 351 kts | 198° |
| 2026-04-16 14:41 | 34.54924 | 11.50969 | 18698 ft | 351 kts | 198° |
| 2026-04-16 14:41 | 34.52668 | 11.49871 | 18344 ft | 349 kts | 210° |
| 2026-04-16 14:41 | 34.50688 | 11.48202 | 17931 ft | 347 kts | 223° |
| 2026-04-16 14:41 | 34.48920 | 11.46223 | 17575 ft | 344 kts | 225° |
| 2026-04-16 14:42 | 34.47768 | 11.44901 | 17348 ft | 343 kts | 225° |
| 2026-04-16 14:42 | 34.46019 | 11.42894 | 16989 ft | 341 kts | 225° |
| 2026-04-16 14:42 | 34.44314 | 11.40951 | 16650 ft | 340 kts | 225° |
| 2026-04-16 14:42 | 34.42587 | 11.38999 | 16303 ft | 338 kts | 225° |
| 2026-04-16 14:43 | 34.40864 | 11.37062 | 15958 ft | 337 kts | 224° |
| 2026-04-16 14:43 | 34.39151 | 11.35144 | 15629 ft | 335 kts | 224° |
| 2026-04-16 14:43 | 34.37440 | 11.33231 | 15296 ft | 334 kts | 224° |
| 2026-04-16 14:43 | 34.35740 | 11.31321 | 14968 ft | 332 kts | 225° |
| 2026-04-16 14:44 | 34.34057 | 11.29408 | 14636 ft | 331 kts | 225° |
| 2026-04-16 14:44 | 34.32382 | 11.27496 | 14314 ft | 330 kts | 225° |
| 2026-04-16 14:44 | 34.30713 | 11.25593 | 13988 ft | 329 kts | 225° |
| 2026-04-16 14:44 | 34.29043 | 11.23691 | 13624 ft | 329 kts | 225° |
| 2026-04-16 14:45 | 34.27379 | 11.21799 | 13276 ft | 328 kts | 225° |
| 2026-04-16 14:45 | 34.25721 | 11.19917 | 12930 ft | 327 kts | 225° |
| 2026-04-16 14:45 | 34.24090 | 11.18065 | 12599 ft | 325 kts | 225° |
| 2026-04-16 14:45 | 34.22418 | 11.16172 | 12257 ft | 324 kts | 225° |
| 2026-04-16 14:46 | 34.20796 | 11.14337 | 11938 ft | 323 kts | 225° |
| 2026-04-16 14:46 | 34.19338 | 11.12302 | 11593 ft | 319 kts | 236° |
| 2026-04-16 14:46 | 34.18049 | 11.10127 | 11278 ft | 317 kts | 238° |
| 2026-04-16 14:46 | 34.16788 | 11.07945 | 10957 ft | 316 kts | 238° |
| 2026-04-16 14:47 | 34.15538 | 11.05773 | 10649 ft | 315 kts | 238° |
| 2026-04-16 14:47 | 34.14295 | 11.03603 | 10343 ft | 313 kts | 238° |
| 2026-04-16 14:47 | 34.13064 | 11.01451 | 10140 ft | 308 kts | 238° |
| 2026-04-16 14:47 | 34.11859 | 10.99349 | 9999 ft | 301 kts | 238° |
| 2026-04-16 14:48 | 34.10675 | 10.97283 | 9729 ft | 299 kts | 238° |
| 2026-04-16 14:48 | 34.09499 | 10.95237 | 9512 ft | 294 kts | 238° |
| 2026-04-16 14:48 | 34.08342 | 10.93227 | 9441 ft | 288 kts | 238° |
| 2026-04-16 14:48 | 34.07196 | 10.91238 | 9252 ft | 290 kts | 238° |
| 2026-04-16 14:49 | 34.06039 | 10.89231 | 8851 ft | 301 kts | 238° |
| 2026-04-16 14:49 | 34.04827 | 10.87118 | 8466 ft | 301 kts | 238° |
| 2026-04-16 14:49 | 34.03640 | 10.85058 | 8047 ft | 297 kts | 238° |
| 2026-04-16 14:49 | 34.02468 | 10.83032 | 7649 ft | 292 kts | 238° |
| 2026-04-16 14:50 | 34.01309 | 10.81036 | 7247 ft | 288 kts | 238° |
| 2026-04-16 14:50 | 34.00164 | 10.79071 | 6852 ft | 284 kts | 238° |
| 2026-04-16 14:50 | 33.99034 | 10.77138 | 6463 ft | 281 kts | 238° |
| 2026-04-16 14:50 | 33.97924 | 10.75243 | 6062 ft | 279 kts | 238° |
| 2026-04-16 14:51 | 33.96806 | 10.73337 | 5660 ft | 277 kts | 238° |
| 2026-04-16 14:51 | 33.95696 | 10.71446 | 5257 ft | 276 kts | 238° |
| 2026-04-16 14:51 | 33.94593 | 10.69562 | 4862 ft | 274 kts | 238° |
| 2026-04-16 14:51 | 33.93496 | 10.67688 | 4456 ft | 273 kts | 238° |
| 2026-04-16 14:53 | 33.87007 | 10.60689 | 3000 ft | 190 kts | 89° |
| 2026-04-16 14:53 | 33.87166 | 10.62221 | 2864 ft | 189 kts | 75° |
| 2026-04-16 14:54 | 33.87176 | 10.63820 | 2570 ft | 188 kts | 88° |
| 2026-04-16 14:54 | 33.87215 | 10.65411 | 2015 ft | 192 kts | 81° |
| 2026-04-16 14:54 | 33.87285 | 10.67007 | 1476 ft | 189 kts | 83° |
| 2026-04-16 14:54 | 33.87320 | 10.68511 | 1244 ft | 172 kts | 83° |
| 2026-04-16 14:55 | 33.87352 | 10.69878 | 1032 ft | 157 kts | 82° |
| 2026-04-16 14:55 | 33.87382 | 10.71119 | 822 ft | 143 kts | 81° |
| 2026-04-16 14:55 | 33.87412 | 10.72297 | 651 ft | 141 kts | 81° |
| 2026-04-16 14:55 | 33.87443 | 10.73482 | 480 ft | 142 kts | 82° |
| 2026-04-16 14:56 | 33.87469 | 10.74679 | 291 ft | 143 kts | 84° |
| 2026-04-16 14:56 | 33.87494 | 10.75874 | 68 ft | 142 kts | 82° |
| 2026-04-16 14:56 | 33.87530 | 10.76992 | 18 ft | 114 kts | 89° |
| 2026-04-16 14:56 | 33.87546 | 10.77698 | 23 ft | 64 kts | 89° |
| 2026-04-16 14:57 | 33.87556 | 10.78197 | 21 ft | 55 kts | 88° |
| 2026-04-16 14:57 | 33.87564 | 10.78511 | 18 ft | 12 kts | 88° |
| 2026-04-16 14:57 | 33.87534 | 10.78597 | 20 ft | 12 kts | 161° |
| 2026-04-16 14:57 | 33.87450 | 10.78600 | 20 ft | 12 kts | 188° |
| 2026-04-16 14:58 | 33.87399 | 10.78529 | 23 ft | 15 kts | 268° |
| 2026-04-16 14:58 | 33.87398 | 10.78170 | 25 ft | 23 kts | 268° |
| 2026-04-16 14:58 | 33.87394 | 10.77979 | 27 ft | 23 kts | 269° |
| 2026-04-16 14:59 | 33.87390 | 10.77792 | 25 ft | 22 kts | 268° |
| 2026-04-16 14:59 | 33.87385 | 10.77612 | 25 ft | 21 kts | 268° |
| 2026-04-16 14:59 | 33.87380 | 10.77436 | 26 ft | 21 kts | 267° |
| 2026-04-16 14:59 | 33.87361 | 10.77353 | 27 ft | 8 kts | 198° |
| 2026-04-16 15:00 | 33.87318 | 10.77385 | 26 ft | 7 kts | 134° |
| 2026-04-16 15:00 | 33.87284 | 10.77427 | 26 ft | 4 kts | 135° |
| 2026-04-16 15:00 | 33.87282 | 10.77430 | 26 ft | 0 kts | 135° |